createdAt,value
2023-09-10T00:00:29.098Z,99.90
2023-09-10T00:03:01.159Z,99.90
2023-09-10T00:05:33.300Z,99.90
2023-09-10T00:08:05.720Z,99.90
2023-09-10T00:10:38.833Z,99.90
2023-09-10T00:13:11.309Z,99.90
2023-09-10T00:15:43.305Z,99.90
2023-09-10T00:18:19.461Z,99.90
2023-09-10T00:20:55.084Z,99.90
2023-09-10T00:23:27.075Z,99.90
2023-09-10T00:25:59.318Z,99.90
2023-09-10T00:28:31.400Z,99.90
2023-09-10T00:31:03.981Z,99.90
2023-09-10T00:33:35.905Z,99.90
2023-09-10T00:36:09.993Z,99.90
2023-09-10T00:38:41.934Z,99.90
2023-09-10T00:41:13.866Z,99.90
2023-09-10T00:43:45.751Z,99.90
2023-09-10T00:46:18.146Z,99.90
2023-09-10T00:48:50.222Z,99.90
2023-09-10T00:51:22.537Z,99.90
2023-09-10T00:53:55.370Z,99.90
2023-09-10T00:56:27.532Z,99.90
2023-09-10T00:58:59.584Z,99.90
2023-09-10T01:01:31.694Z,99.90
2023-09-10T01:04:03.666Z,99.90
2023-09-10T01:06:38.089Z,99.90
2023-09-10T01:09:10.140Z,99.90
2023-09-10T01:12:10.434Z,99.90
2023-09-10T01:14:50.987Z,99.90
2023-09-10T01:18:00.030Z,99.90
2023-09-10T01:21:16.785Z,99.90
2023-09-10T01:24:20.110Z,99.90
2023-09-10T01:26:56.469Z,99.90
2023-09-10T01:29:28.480Z,99.90
2023-09-10T01:32:03.806Z,99.90
2023-09-10T01:34:42.932Z,99.90
2023-09-10T01:37:36.432Z,99.90
2023-09-10T01:40:10.522Z,99.90
2023-09-10T01:42:42.879Z,99.90
2023-09-10T01:45:14.885Z,99.90
2023-09-10T01:47:47.583Z,99.90
2023-09-10T01:50:20.378Z,99.90
2023-09-10T01:52:52.361Z,99.90
2023-09-10T01:55:24.560Z,99.90
2023-09-10T01:57:56.546Z,99.90
2023-09-10T02:00:28.591Z,99.90
2023-09-10T02:03:01.683Z,99.90
2023-09-10T02:05:33.911Z,99.90
2023-09-10T02:08:06.565Z,99.90
2023-09-10T02:10:38.701Z,99.90
2023-09-10T02:13:10.715Z,99.90
2023-09-10T02:15:42.764Z,99.90
2023-09-10T02:18:14.809Z,99.90
2023-09-10T02:20:46.837Z,99.90
2023-09-10T02:23:18.766Z,99.90
2023-09-10T02:25:53.228Z,99.90
2023-09-10T02:28:26.199Z,99.90
2023-09-10T02:30:58.168Z,99.90
2023-09-10T02:33:30.057Z,99.90
2023-09-10T02:36:02.860Z,99.90
2023-09-10T02:38:34.896Z,99.90
2023-09-10T02:41:07.088Z,99.90
2023-09-10T02:43:39.192Z,99.90
2023-09-10T02:46:11.465Z,99.90
2023-09-10T02:48:43.491Z,99.90
2023-09-10T02:51:15.500Z,99.90
2023-09-10T02:53:49.457Z,99.90
2023-09-10T02:56:21.369Z,99.90
2023-09-10T02:58:53.473Z,99.90
2023-09-10T03:01:25.449Z,99.90
2023-09-10T03:03:57.459Z,99.90
2023-09-10T03:06:29.376Z,99.90
2023-09-10T03:09:01.465Z,99.90
2023-09-10T03:11:35.119Z,99.90
2023-09-10T03:14:08.045Z,99.90
2023-09-10T03:16:40.680Z,99.90
2023-09-10T03:19:15.786Z,99.90
2023-09-10T03:21:48.682Z,99.90
2023-09-10T03:24:20.806Z,99.90
2023-09-10T03:26:52.902Z,99.90
2023-09-10T03:29:35.813Z,99.90
2023-09-10T03:32:08.273Z,99.90
2023-09-10T03:34:43.410Z,99.90
2023-09-10T03:37:15.485Z,99.90
2023-09-10T03:39:47.838Z,99.90
2023-09-10T03:42:19.801Z,99.90
2023-09-10T03:44:51.877Z,99.90
2023-09-10T03:47:23.974Z,99.90
2023-09-10T03:49:56.433Z,99.90
2023-09-10T03:52:28.456Z,99.90
2023-09-10T03:55:00.427Z,99.90
2023-09-10T03:57:32.348Z,99.90
2023-09-10T04:00:05.826Z,99.90
2023-09-10T04:02:44.083Z,99.90
2023-09-10T04:05:16.574Z,99.90
2023-09-10T04:07:48.810Z,99.90
2023-09-10T04:10:21.753Z,99.90
2023-09-10T04:12:53.681Z,99.90
2023-09-10T04:15:25.558Z,99.90
2023-09-10T04:17:57.612Z,99.90
2023-09-10T04:20:29.607Z,99.90
2023-09-10T04:23:01.671Z,99.90
2023-09-10T04:25:33.944Z,99.90
2023-09-10T04:28:06.221Z,99.90
2023-09-10T04:30:38.582Z,99.90
2023-09-10T04:33:12.042Z,99.90
2023-09-10T04:35:52.430Z,99.90
2023-09-10T04:38:46.885Z,99.90
2023-09-10T04:41:18.928Z,99.90
2023-09-10T04:43:51.278Z,99.90
2023-09-10T04:46:23.255Z,99.90
2023-09-10T04:48:56.673Z,99.90
2023-09-10T04:51:28.596Z,99.90
2023-09-10T04:54:00.837Z,99.90
2023-09-10T04:56:32.814Z,99.90
2023-09-10T04:59:04.798Z,99.90
2023-09-10T05:01:36.782Z,99.90
2023-09-10T05:04:08.982Z,99.90
2023-09-10T05:06:42.129Z,99.90
2023-09-10T05:09:14.054Z,99.90
2023-09-10T05:11:46.165Z,99.90
2023-09-10T05:14:18.361Z,99.90
2023-09-10T05:16:50.405Z,99.90
2023-09-10T05:19:24.962Z,99.90
2023-09-10T05:21:58.665Z,99.90
2023-09-10T05:24:31.207Z,99.90
2023-09-10T05:27:04.065Z,99.90
2023-09-10T05:29:35.974Z,99.90
2023-09-10T05:32:07.935Z,99.90
2023-09-10T05:34:39.884Z,99.90
2023-09-10T05:37:11.857Z,99.90
2023-09-10T05:39:43.729Z,99.90
2023-09-10T05:42:15.732Z,99.90
2023-09-10T05:44:52.454Z,99.90
2023-09-10T05:47:24.880Z,99.90
2023-09-10T05:49:57.112Z,99.90
2023-09-10T05:52:29.278Z,99.90
2023-09-10T05:55:01.235Z,99.90
2023-09-10T05:57:33.130Z,99.90
2023-09-10T06:00:05.433Z,99.90
2023-09-10T06:02:48.385Z,99.90
2023-09-10T06:05:20.779Z,99.90
2023-09-10T06:07:52.778Z,99.80
2023-09-10T06:10:25.409Z,99.70
2023-09-10T06:12:57.418Z,99.60
2023-09-10T06:15:29.601Z,99.50
2023-09-10T06:18:01.595Z,98.90
2023-09-10T06:20:35.087Z,98.80
2023-09-10T06:23:07.147Z,98.40
2023-09-10T06:25:39.811Z,98.10
2023-09-10T06:28:11.781Z,98.00
2023-09-10T06:30:43.743Z,97.70
2023-09-10T06:33:15.830Z,97.30
2023-09-10T06:35:48.088Z,97.10
2023-09-10T06:38:21.256Z,96.90
2023-09-10T06:40:53.321Z,96.60
2023-09-10T06:43:25.447Z,96.40
2023-09-10T06:46:11.723Z,96.10
2023-09-10T06:48:43.713Z,95.70
2023-09-10T06:51:15.615Z,95.10
2023-09-10T06:53:47.544Z,94.60
2023-09-10T06:56:19.605Z,94.30
2023-09-10T06:58:51.546Z,94.20
2023-09-10T07:01:23.756Z,93.80
2023-09-10T07:03:58.912Z,93.60
2023-09-10T07:06:30.929Z,93.50
2023-09-10T07:09:02.881Z,93.20
2023-09-10T07:11:34.770Z,92.90
2023-09-10T07:14:06.688Z,92.50
2023-09-10T07:16:38.704Z,92.10
2023-09-10T07:19:10.639Z,91.90
2023-09-10T07:21:42.786Z,91.20
2023-09-10T07:24:14.687Z,90.90
2023-09-10T07:26:46.626Z,90.40
2023-09-10T07:29:18.882Z,88.70
2023-09-10T07:31:50.927Z,89.70
2023-09-10T07:34:22.978Z,90.20
2023-09-10T07:36:54.841Z,88.90
2023-09-10T07:39:30.531Z,87.90
2023-09-10T07:42:02.506Z,85.20
2023-09-10T07:44:34.525Z,85.30
2023-09-10T07:47:06.526Z,87.40
2023-09-10T07:49:38.492Z,86.00
2023-09-10T07:52:10.568Z,85.30
2023-09-10T07:54:43.595Z,85.30
2023-09-10T07:57:17.824Z,84.90
2023-09-10T07:59:49.918Z,82.20
2023-09-10T08:02:23.782Z,83.30
2023-09-10T08:04:55.754Z,82.90
2023-09-10T08:07:27.648Z,82.50
2023-09-10T08:09:59.579Z,83.30
2023-09-10T08:12:31.522Z,82.30
2023-09-10T08:15:03.893Z,80.90
2023-09-10T08:17:36.950Z,81.30
2023-09-10T08:20:09.500Z,83.00
2023-09-10T08:22:41.397Z,81.80
2023-09-10T08:25:13.455Z,82.60
2023-09-10T08:27:45.593Z,81.50
2023-09-10T08:30:17.509Z,79.80
2023-09-10T08:32:50.667Z,79.60
2023-09-10T08:35:24.239Z,79.80
2023-09-10T08:37:56.219Z,78.00
2023-09-10T08:40:28.321Z,78.40
2023-09-10T08:43:11.398Z,76.60
2023-09-10T08:45:44.628Z,76.80
2023-09-10T08:48:19.570Z,77.20
2023-09-10T08:50:52.580Z,77.40
2023-09-10T08:53:25.771Z,76.90
2023-09-10T08:55:58.605Z,77.30
2023-09-10T08:58:33.381Z,79.50
2023-09-10T09:01:05.669Z,80.00
2023-09-10T09:03:38.051Z,80.20
2023-09-10T09:06:11.598Z,78.20
2023-09-10T09:08:49.945Z,79.20
2023-09-10T09:11:22.768Z,79.00
2023-09-10T09:13:56.969Z,80.00
2023-09-10T09:16:29.258Z,78.60
2023-09-10T09:19:05.855Z,78.10
2023-09-10T09:21:40.533Z,77.60
2023-09-10T09:24:14.446Z,76.80
2023-09-10T09:26:46.604Z,76.30
2023-09-10T09:29:19.816Z,74.70
2023-09-10T09:31:51.745Z,75.70
2023-09-10T09:34:23.739Z,75.50
2023-09-10T09:36:56.082Z,75.30
2023-09-10T09:39:30.237Z,74.40
2023-09-10T09:42:02.188Z,74.70
2023-09-10T09:44:34.263Z,74.00
2023-09-10T09:47:13.694Z,73.00
2023-09-10T09:49:46.098Z,74.30
2023-09-10T09:52:19.254Z,73.60
2023-09-10T09:54:51.368Z,73.90
2023-09-10T09:57:23.240Z,73.90
2023-09-10T09:59:56.667Z,73.80
2023-09-10T10:02:30.005Z,73.70
2023-09-10T10:05:02.412Z,74.10
2023-09-10T10:07:50.035Z,73.70
2023-09-10T10:10:24.328Z,74.00
2023-09-10T10:12:57.196Z,74.10
2023-09-10T10:15:29.863Z,75.60
2023-09-10T10:18:04.421Z,74.80
2023-09-10T10:20:38.190Z,75.80
2023-09-10T10:23:23.077Z,75.50
2023-09-10T10:26:02.885Z,74.80
2023-09-10T10:28:36.742Z,74.50
2023-09-10T10:31:18.386Z,74.30
2023-09-10T10:34:12.179Z,73.80
2023-09-10T10:37:15.776Z,75.70
2023-09-10T10:39:48.170Z,75.30
2023-09-10T10:42:36.540Z,77.10
2023-09-10T10:45:10.811Z,78.40
2023-09-10T10:47:44.161Z,78.80
2023-09-10T10:50:25.356Z,79.50
2023-09-10T10:53:08.426Z,78.90
2023-09-10T10:55:41.954Z,77.60
2023-09-10T10:58:14.398Z,78.00
2023-09-10T11:00:51.354Z,78.20
2023-09-10T11:03:23.607Z,78.00
2023-09-10T11:06:05.565Z,77.50
2023-09-10T11:08:42.812Z,77.00
2023-09-10T11:11:36.349Z,77.20
2023-09-10T11:14:10.325Z,78.10
2023-09-10T11:16:45.958Z,78.80
2023-09-10T11:19:46.654Z,79.50
2023-09-10T11:22:18.897Z,80.50
2023-09-10T11:25:01.926Z,80.30
2023-09-10T11:27:37.190Z,79.20
2023-09-10T11:30:09.235Z,80.10
2023-09-10T11:32:46.696Z,79.40
2023-09-10T11:35:19.835Z,79.40
2023-09-10T11:37:54.221Z,79.40
2023-09-10T11:40:27.008Z,80.30
2023-09-10T11:42:59.460Z,80.30
2023-09-10T11:45:33.881Z,80.40
2023-09-10T11:48:08.018Z,80.40
2023-09-10T11:50:40.108Z,80.90
2023-09-10T11:53:14.321Z,80.80
2023-09-10T11:55:48.647Z,80.70
2023-09-10T11:58:22.605Z,80.70
2023-09-10T12:00:55.885Z,81.30
2023-09-10T12:03:28.917Z,82.00
2023-09-10T12:06:01.237Z,81.70
2023-09-10T12:08:33.211Z,81.40
2023-09-10T12:11:09.597Z,81.30
2023-09-10T12:13:41.805Z,81.00
2023-09-10T12:16:14.402Z,81.10
2023-09-10T12:18:47.616Z,80.60
2023-09-10T12:21:20.294Z,80.50
2023-09-10T12:23:55.259Z,80.50
2023-09-10T12:26:27.322Z,79.90
2023-09-10T12:28:59.408Z,80.00
2023-09-10T12:31:31.865Z,80.40
2023-09-10T12:34:03.924Z,80.20
2023-09-10T12:36:35.933Z,79.60
2023-09-10T12:39:22.474Z,80.50
2023-09-10T12:42:02.754Z,80.20
2023-09-10T12:44:39.705Z,80.30
2023-09-10T12:47:14.408Z,80.10
2023-09-10T12:49:46.692Z,80.60
2023-09-10T12:52:18.661Z,80.70
2023-09-10T12:54:50.644Z,81.20
2023-09-10T12:57:22.613Z,81.30
2023-09-10T12:59:55.100Z,81.10
2023-09-10T13:02:32.471Z,80.70
2023-09-10T13:05:06.816Z,80.00
2023-09-10T13:07:38.735Z,79.50
2023-09-10T13:10:11.511Z,79.60
2023-09-10T13:12:45.198Z,79.10
2023-09-10T13:15:17.284Z,79.80
2023-09-10T13:17:49.526Z,80.20
2023-09-10T13:20:21.640Z,79.90
2023-09-10T13:22:53.790Z,79.40
2023-09-10T13:25:25.779Z,79.70
2023-09-10T13:27:57.679Z,79.80
2023-09-10T13:30:29.787Z,79.90
2023-09-10T13:33:01.839Z,80.20
2023-09-10T13:35:38.787Z,80.10
2023-09-10T13:38:10.781Z,79.90
2023-09-10T13:40:42.906Z,80.10
2023-09-10T13:43:14.822Z,79.70
2023-09-10T13:45:46.988Z,80.10
2023-09-10T13:48:19.017Z,80.50
2023-09-10T13:50:52.227Z,81.00
2023-09-10T13:53:24.716Z,81.00
2023-09-10T13:55:56.673Z,81.20
2023-09-10T13:58:28.594Z,80.50
2023-09-10T14:01:04.027Z,80.40
2023-09-10T14:03:36.561Z,80.50
2023-09-10T14:06:09.596Z,80.40
2023-09-10T14:08:42.719Z,80.30
2023-09-10T14:11:15.371Z,80.60
2023-09-10T14:13:48.392Z,80.90
2023-09-10T14:16:22.366Z,80.50
2023-09-10T14:18:54.381Z,80.80
2023-09-10T14:21:27.866Z,80.50
2023-09-10T14:23:59.877Z,79.80
2023-09-10T14:26:31.995Z,79.90
2023-09-10T14:29:04.090Z,79.20
2023-09-10T14:31:36.239Z,79.50
2023-09-10T14:34:08.157Z,79.00
2023-09-10T14:36:40.076Z,79.90
2023-09-10T14:39:12.805Z,80.40
2023-09-10T14:41:44.921Z,79.90
2023-09-10T14:44:16.783Z,80.30
2023-09-10T14:46:48.734Z,79.50
2023-09-10T14:49:20.840Z,79.50
2023-09-10T14:51:52.732Z,78.60
2023-09-10T14:54:24.654Z,78.20
2023-09-10T14:56:58.693Z,78.40
2023-09-10T14:59:30.795Z,79.30
2023-09-10T15:02:02.948Z,79.60
2023-09-10T15:04:34.832Z,79.20
2023-09-10T15:07:06.815Z,80.00
2023-09-10T15:09:39.821Z,80.40
2023-09-10T15:12:11.725Z,80.80
2023-09-10T15:14:43.659Z,81.00
2023-09-10T15:17:16.308Z,81.00
2023-09-10T15:19:48.776Z,81.40
2023-09-10T15:22:20.726Z,81.30
2023-09-10T15:24:52.717Z,82.10
2023-09-10T15:27:25.222Z,81.80
2023-09-10T15:29:57.746Z,81.20
2023-09-10T15:32:29.728Z,81.60
2023-09-10T15:35:01.856Z,81.20
2023-09-10T15:37:33.886Z,80.90
2023-09-10T15:40:06.309Z,81.40
2023-09-10T15:42:38.225Z,82.00
2023-09-10T15:45:10.502Z,81.90
2023-09-10T15:47:44.172Z,81.10
2023-09-10T15:50:16.153Z,80.40
2023-09-10T15:52:48.260Z,80.60
2023-09-10T15:55:20.263Z,81.00
2023-09-10T15:57:52.156Z,81.30
2023-09-10T16:00:24.174Z,82.20
2023-09-10T16:02:56.148Z,82.30
2023-09-10T16:05:28.303Z,83.20
2023-09-10T16:08:00.298Z,83.80
2023-09-10T16:10:32.530Z,84.00
2023-09-10T16:13:06.469Z,84.50
2023-09-10T16:15:38.442Z,85.00
2023-09-10T16:18:10.570Z,85.70
2023-09-10T16:20:42.685Z,86.10
2023-09-10T16:23:14.927Z,86.20
2023-09-10T16:25:46.951Z,86.90
2023-09-10T16:28:18.863Z,87.30
2023-09-10T16:30:51.040Z,88.20
2023-09-10T16:33:23.742Z,88.60
2023-09-10T16:35:55.894Z,89.40
2023-09-10T16:38:27.991Z,89.80
2023-09-10T16:40:59.996Z,90.40
2023-09-10T16:43:31.924Z,90.40
2023-09-10T16:46:03.936Z,90.60
2023-09-10T16:48:36.021Z,90.70
2023-09-10T16:51:08.471Z,91.30
2023-09-10T16:53:42.708Z,91.60
2023-09-10T16:56:15.207Z,91.90
2023-09-10T16:58:47.618Z,92.10
2023-09-10T17:01:19.865Z,92.10
2023-09-10T17:03:51.917Z,92.10
2023-09-10T17:06:24.046Z,92.10
2023-09-10T17:08:57.125Z,92.10
2023-09-10T17:11:29.214Z,92.10
2023-09-10T17:14:01.361Z,92.10
2023-09-10T17:16:33.426Z,92.40
2023-09-10T17:19:05.661Z,92.40
2023-09-10T17:21:37.623Z,92.40
2023-09-10T17:24:11.527Z,92.40
2023-09-10T17:26:43.529Z,92.50
2023-09-10T17:29:15.801Z,92.60
2023-09-10T17:31:47.798Z,92.80
2023-09-10T17:34:19.892Z,93.20
2023-09-10T17:36:51.846Z,93.30
2023-09-10T17:39:23.803Z,93.70
2023-09-10T17:41:56.046Z,94.00
2023-09-10T17:44:28.084Z,94.50
2023-09-10T17:47:02.558Z,94.90
2023-09-10T17:49:35.505Z,95.30
2023-09-10T17:52:07.567Z,95.70
2023-09-10T17:54:39.632Z,96.00
2023-09-10T17:57:11.640Z,96.30
2023-09-10T17:59:43.815Z,96.60
2023-09-10T18:02:16.029Z,96.90
2023-09-10T18:04:48.030Z,97.40
2023-09-10T18:07:19.934Z,98.00
2023-09-10T18:09:52.549Z,98.40
2023-09-10T18:12:24.934Z,98.90
2023-09-10T18:14:56.898Z,99.30
2023-09-10T18:17:28.936Z,99.60
2023-09-10T18:20:01.398Z,99.90
2023-09-10T18:22:33.486Z,99.90
2023-09-10T18:25:05.511Z,99.90
2023-09-10T18:27:39.559Z,99.90
2023-09-10T18:30:13.752Z,99.90
2023-09-10T18:32:45.731Z,99.90
2023-09-10T18:35:19.066Z,99.90
2023-09-10T18:37:51.037Z,99.90
2023-09-10T18:40:23.970Z,99.90
2023-09-10T18:42:55.830Z,99.90
2023-09-10T18:45:30.130Z,99.90
2023-09-10T18:48:02.522Z,99.90
2023-09-10T18:50:34.700Z,99.90
2023-09-10T18:53:06.888Z,99.90
2023-09-10T18:55:38.841Z,99.90
2023-09-10T18:58:10.782Z,99.90
2023-09-10T19:00:42.832Z,99.90
2023-09-10T19:03:15.080Z,99.90
2023-09-10T19:05:47.158Z,99.90
2023-09-10T19:08:19.129Z,99.90
2023-09-10T19:10:52.119Z,99.90
2023-09-10T19:13:25.095Z,99.90
2023-09-10T19:15:57.096Z,99.90
2023-09-10T19:18:29.095Z,99.90
2023-09-10T19:21:01.074Z,99.90
2023-09-10T19:23:33.030Z,99.90
2023-09-10T19:26:04.986Z,99.90
2023-09-10T19:28:36.926Z,99.90
2023-09-10T19:31:12.843Z,99.90
2023-09-10T19:33:44.877Z,99.90
2023-09-10T19:36:18.046Z,99.90
2023-09-10T19:38:51.015Z,99.90
2023-09-10T19:41:23.248Z,99.90
2023-09-10T19:43:57.999Z,99.90
2023-09-10T19:46:30.617Z,99.90
2023-09-10T19:49:02.573Z,99.90
2023-09-10T19:51:34.470Z,99.90
2023-09-10T19:54:06.633Z,99.90
2023-09-10T19:56:38.648Z,99.90
2023-09-10T19:59:12.083Z,99.90
2023-09-10T20:01:45.412Z,99.90
2023-09-10T20:04:17.457Z,99.90
2023-09-10T20:06:56.526Z,99.90
2023-09-10T20:09:28.421Z,99.90
2023-09-10T20:12:00.287Z,99.90
2023-09-10T20:14:33.402Z,99.90
2023-09-10T20:17:06.645Z,99.90
2023-09-10T20:19:38.593Z,99.90
2023-09-10T20:22:10.503Z,99.90
2023-09-10T20:24:42.609Z,99.90
2023-09-10T20:27:17.653Z,99.90
2023-09-10T20:29:49.781Z,99.90
2023-09-10T20:32:21.816Z,99.90
2023-09-10T20:34:53.760Z,99.90
2023-09-10T20:37:25.787Z,99.90
2023-09-10T20:39:58.286Z,99.90
2023-09-10T20:42:30.636Z,99.90
2023-09-10T20:45:02.548Z,99.90
2023-09-10T20:47:34.573Z,99.90
2023-09-10T20:50:07.043Z,99.90
2023-09-10T20:52:39.900Z,99.90
2023-09-10T20:55:11.777Z,99.90
2023-09-10T20:57:44.402Z,99.90
2023-09-10T21:00:16.670Z,99.90
2023-09-10T21:02:48.789Z,99.90
2023-09-10T21:05:20.974Z,99.90
2023-09-10T21:07:53.497Z,99.90
2023-09-10T21:10:25.724Z,99.90
2023-09-10T21:13:10.082Z,99.90
2023-09-10T21:15:44.237Z,99.90
2023-09-10T21:18:16.372Z,99.90
2023-09-10T21:20:48.487Z,99.90
2023-09-10T21:23:20.502Z,99.90
2023-09-10T21:25:52.512Z,99.90
2023-09-10T21:28:24.701Z,99.90
2023-09-10T21:30:56.693Z,99.90
2023-09-10T21:33:28.757Z,99.90
2023-09-10T21:36:00.724Z,99.90
2023-09-10T21:38:32.634Z,99.90
2023-09-10T21:41:04.599Z,99.90
2023-09-10T21:43:36.425Z,99.90
2023-09-10T21:46:09.931Z,99.90
2023-09-10T21:48:42.336Z,99.90
2023-09-10T21:51:14.381Z,99.90
2023-09-10T21:53:47.712Z,99.90
2023-09-10T21:56:19.893Z,99.90
2023-09-10T21:58:52.470Z,99.90
2023-09-10T22:01:24.657Z,99.90
2023-09-10T22:03:56.827Z,99.90
2023-09-10T22:06:28.840Z,99.90
2023-09-10T22:09:01.915Z,99.90
2023-09-10T22:11:34.980Z,99.90
2023-09-10T22:14:08.428Z,99.90
2023-09-10T22:16:40.520Z,99.90
2023-09-10T22:19:14.162Z,99.90
2023-09-10T22:21:46.075Z,99.90
2023-09-10T22:24:18.022Z,99.90
2023-09-10T22:26:50.064Z,99.90
2023-09-10T22:29:23.191Z,99.90
2023-09-10T22:31:55.329Z,99.90
2023-09-10T22:34:27.281Z,99.90
2023-09-10T22:36:59.195Z,99.90
2023-09-10T22:39:32.560Z,99.90
2023-09-10T22:42:04.620Z,99.90
2023-09-10T22:44:36.579Z,99.90
2023-09-10T22:47:08.561Z,99.90
2023-09-10T22:49:40.493Z,99.90
2023-09-10T22:52:12.704Z,99.90
2023-09-10T22:54:44.652Z,99.90
2023-09-10T22:57:16.649Z,99.90
2023-09-10T22:59:48.637Z,99.90
2023-09-10T23:02:20.700Z,99.90
2023-09-10T23:04:54.148Z,99.90
2023-09-10T23:07:26.137Z,99.90
2023-09-10T23:10:08.099Z,99.90
2023-09-10T23:12:44.730Z,99.90
2023-09-10T23:15:16.651Z,99.90
2023-09-10T23:17:48.559Z,99.90
2023-09-10T23:20:20.625Z,99.90
2023-09-10T23:22:59.926Z,99.90
2023-09-10T23:25:31.965Z,99.90
2023-09-10T23:28:03.964Z,99.90
2023-09-10T23:30:35.964Z,99.90
2023-09-10T23:33:09.456Z,99.90
2023-09-10T23:35:41.711Z,99.90
2023-09-10T23:38:13.700Z,99.90
2023-09-10T23:40:58.961Z,99.90
2023-09-10T23:43:30.824Z,99.90
2023-09-10T23:46:03.889Z,99.90
2023-09-10T23:48:36.297Z,99.90
2023-09-10T23:51:08.281Z,99.90
2023-09-10T23:53:40.265Z,99.90
2023-09-10T23:56:12.261Z,99.90
2023-09-10T23:58:45.745Z,99.90
